Time;durP1;ratioP1;P1;durP2;ratioP2;P2;SDS_P1;SDS_P2;PMS_P1;PMS_P2;Temp;Humidity;BMP_temperature;BMP_pressure;BME280_temperature;BME280_humidity;BME280_pressure;Samples;Min_cycle;Max_cycle;Signal;HPM_P1;HPM_P2
2024/01/07 02:12:04;;;;;;;6.70;5.72;;;;;;;;;;4932497;28;20048;-96
2024/01/07 02:14:30;;;;;;;10.60;6.45;;;;;;;;;;4926384;29;20028;-95
2024/01/07 02:17:04;;;;;;;7.40;6.00;;;;;;;;;;4915821;29;20032;-96
2024/01/07 02:19:30;;;;;;;8.25;5.45;;;;;;;;;;4930973;29;20024;-95
2024/01/07 02:22:06;;;;;;;7.93;5.43;;;;;;;;;;4913999;29;20032;-95
2024/01/07 02:24:35;;;;;;;8.27;5.53;;;;;;;;;;4911138;29;20048;-96
2024/01/07 02:27:04;;;;;;;9.13;5.88;;;;;;;;;;4910031;29;20070;-95
2024/01/07 02:29:30;;;;;;;8.07;6.03;;;;;;;;;;4921790;29;20024;-96
2024/01/07 02:31:56;;;;;;;8.07;5.05;;;;;;;;;;4925796;29;20052;-95
2024/01/07 02:34:22;;;;;;;7.03;5.10;;;;;;;;;;4910584;29;20052;-96
2024/01/07 02:37:02;;;;;;;7.65;6.32;;;;;;;;;;4909059;29;20382;-96
2024/01/07 02:39:28;;;;;;;7.75;6.13;;;;;;;;;;4909692;29;20028;-96
2024/01/07 02:41:57;;;;;;;7.30;5.00;;;;;;;;;;4907461;29;20048;-96
2024/01/07 02:44:31;;;;;;;6.43;5.28;;;;;;;;;;4908281;29;20039;-96
2024/01/07 02:47:01;;;;;;;7.38;5.85;;;;;;;;;;4924238;29;20044;-96
2024/01/07 02:49:29;;;;;;;6.75;4.97;;;;;;;;;;4915496;29;20059;-96
2024/01/07 02:52:00;;;;;;;9.65;5.95;;;;;;;;;;4913147;29;20036;-96
2024/01/07 02:54:53;;;;;;;7.45;6.70;;;;;;;;;;4931113;29;20087;-96
2024/01/07 02:57:33;;;;;;;;;;;;;;;;;;;;;
2024/01/07 03:00:13;;;;;;;10.13;8.98;;;;;;;;;;4930661;29;20048;-96
2024/01/07 03:02:42;;;;;;;9.52;8.55;;;;;;;;;;4909888;29;20031;-96
2024/01/07 03:05:33;;;;;;;7.35;5.10;;;;;;;;;;4911677;29;20052;-96
2024/01/07 03:08:49;;;;;;;8.60;7.72;;;;;;;;;;4925038;29;20036;-96
2024/01/07 03:11:34;;;;;;;15.27;14.07;;;;;;;;;;4906162;29;20048;-96
2024/01/07 03:14:04;;;;;;;15.05;13.90;;;;;;;;;;4906323;29;20096;-96
2024/01/07 03:16:51;;;;;;;7.95;7.15;;;;;;;;;;4911522;29;20036;-96
2024/01/07 03:19:42;;;;;;;17.58;16.08;;;;;;;;;;4912907;29;20028;-96
2024/01/07 03:22:37;;;;;;;19.92;18.35;;;;;;;;;;4917140;29;20055;-96
2024/01/07 03:31:54;;;;;;;57.63;54.22;;;;;;;;;;4926351;29;20036;-96
2024/01/07 03:34:53;;;;;;;24.10;22.25;;;;;;;;;;4894271;29;20043;-96
2024/01/07 03:38:00;;;;;;;39.22;36.80;;;;;;;;;;4930438;29;20116;-94
2024/01/07 03:40:54;;;;;;;27.52;25.42;;;;;;;;;;4928818;29;20056;-95
2024/01/07 03:43:40;;;;;;;37.80;35.38;;;;;;;;;;4925608;29;20021;-96
2024/01/07 03:46:31;;;;;;;48.63;45.65;;;;;;;;;;4910461;29;20052;-96
2024/01/07 03:49:10;;;;;;;37.08;34.67;;;;;;;;;;4923040;29;20036;-96
2024/01/07 03:51:36;;;;;;;15.02;13.55;;;;;;;;;;4905757;29;20043;-95
2024/01/07 03:54:07;;;;;;;20.65;19.05;;;;;;;;;;4919996;29;20029;-95
2024/01/07 03:56:34;;;;;;;22.92;21.30;;;;;;;;;;4904906;29;20028;-95
2024/01/07 03:59:01;;;;;;;13.93;12.60;;;;;;;;;;4906995;29;20043;-96
2024/01/07 04:01:29;;;;;;;27.17;25.23;;;;;;;;;;4907621;29;20028;-96
2024/01/07 04:03:55;;;;;;;49.10;46.20;;;;;;;;;;4907039;29;20036;-95
2024/01/07 04:06:22;;;;;;;26.50;24.52;;;;;;;;;;4922718;29;20087;-95
2024/01/07 04:08:48;;;;;;;24.77;22.65;;;;;;;;;;4906892;29;20032;-96
2024/01/07 04:11:15;;;;;;;31.60;29.20;;;;;;;;;;4943773;29;20051;-95
2024/01/07 04:13:41;;;;;;;48.65;45.70;;;;;;;;;;4924233;29;20032;-96
2024/01/07 04:16:16;;;;;;;65.85;61.90;;;;;;;;;;4922917;29;20036;-96
2024/01/07 04:18:42;;;;;;;42.95;40.13;;;;;;;;;;4905296;29;20052;-96
2024/01/07 04:21:10;;;;;;;66.28;62.30;;;;;;;;;;4905293;29;20119;-96
2024/01/07 04:23:36;;;;;;;63.72;59.90;;;;;;;;;;4906089;29;20028;-95
2024/01/07 04:26:02;;;;;;;71.40;67.25;;;;;;;;;;4904507;29;20125;-96
2024/01/07 04:28:28;;;;;;;72.38;68.13;;;;;;;;;;4905223;29;20017;-96
2024/01/07 04:30:54;;;;;;;47.28;44.22;;;;;;;;;;4905580;29;20118;-96
2024/01/07 04:33:22;;;;;;;41.13;38.30;;;;;;;;;;4905604;29;20028;-96
2024/01/07 04:35:49;;;;;;;70.45;66.28;;;;;;;;;;4922225;29;20024;-95
2024/01/07 04:38:17;;;;;;;86.40;81.35;;;;;;;;;;4904920;29;20027;-95
2024/01/07 04:40:43;;;;;;;59.97;56.15;;;;;;;;;;4904455;29;20032;-95
2024/01/07 04:43:10;;;;;;;75.72;71.25;;;;;;;;;;4921259;29;20020;-95
2024/01/07 04:45:36;;;;;;;86.22;81.05;;;;;;;;;;4904381;29;20032;-96
2024/01/07 04:48:03;;;;;;;85.03;80.28;;;;;;;;;;4904697;29;20032;-96
2024/01/07 04:50:30;;;;;;;70.63;66.40;;;;;;;;;;4904628;29;20036;-96
2024/01/07 04:52:56;;;;;;;79.95;75.25;;;;;;;;;;4904750;29;20040;-95
2024/01/07 04:55:22;;;;;;;84.53;79.63;;;;;;;;;;4904194;29;20032;-96
2024/01/07 04:57:48;;;;;;;95.00;89.65;;;;;;;;;;4904379;29;20032;-96
2024/01/07 05:00:15;;;;;;;73.82;69.25;;;;;;;;;;4921213;29;20067;-95
2024/01/07 05:02:41;;;;;;;87.13;82.10;;;;;;;;;;4903928;29;20039;-95
2024/01/07 05:05:11;;;;;;;92.28;86.90;;;;;;;;;;4904161;29;20040;-96
2024/01/07 05:07:38;;;;;;;80.05;75.20;;;;;;;;;;4904754;29;20028;-96
2024/01/07 05:10:04;;;;;;;86.03;80.72;;;;;;;;;;4904179;29;20051;-95
2024/01/07 05:12:31;;;;;;;70.20;65.65;;;;;;;;;;4904084;29;20060;-95
2024/01/07 05:14:57;;;;;;;74.30;69.45;;;;;;;;;;4903759;29;20051;-95
2024/01/07 05:17:23;;;;;;;85.10;79.80;;;;;;;;;;4903843;29;20028;-96
2024/01/07 05:19:49;;;;;;;95.15;89.68;;;;;;;;;;4903732;29;20123;-95
2024/01/07 05:22:15;;;;;;;109.97;103.82;;;;;;;;;;4903517;29;20163;-96
2024/01/07 05:24:41;;;;;;;97.40;91.75;;;;;;;;;;4903631;29;20067;-95
2024/01/07 05:27:09;;;;;;;83.60;78.53;;;;;;;;;;4903849;29;20024;-96
2024/01/07 05:29:36;;;;;;;102.30;96.45;;;;;;;;;;4921041;29;20048;-96
2024/01/07 05:32:02;;;;;;;87.75;82.57;;;;;;;;;;4903438;29;20059;-94
2024/01/07 05:34:29;;;;;;;99.32;93.55;;;;;;;;;;4903578;29;20118;-94
2024/01/07 05:36:56;;;;;;;81.25;76.53;;;;;;;;;;4903384;29;20040;-96
2024/01/07 05:39:22;;;;;;;98.03;92.43;;;;;;;;;;4903660;29;20032;-96
2024/01/07 05:41:48;;;;;;;87.57;82.53;;;;;;;;;;4903618;29;20063;-96
2024/01/07 05:44:14;;;;;;;96.95;91.38;;;;;;;;;;4903889;29;20043;-96
2024/01/07 05:46:41;;;;;;;111.85;105.15;;;;;;;;;;4904138;29;20032;-95
2024/01/07 05:49:08;;;;;;;94.50;89.03;;;;;;;;;;4904687;29;20034;-94
2024/01/07 05:51:38;;;;;;;77.93;73.30;;;;;;;;;;4922763;29;20020;-95
2024/01/07 05:54:05;;;;;;;97.47;91.82;;;;;;;;;;4926583;29;20013;-96
2024/01/07 05:56:31;;;;;;;97.28;91.63;;;;;;;;;;4905080;29;20042;-95
2024/01/07 05:58:57;;;;;;;94.57;89.00;;;;;;;;;;4903569;29;20032;-94
2024/01/07 06:01:23;;;;;;;90.53;85.32;;;;;;;;;;4903992;29;20032;-95
2024/01/07 06:03:50;;;;;;;98.90;93.25;;;;;;;;;;4905016;29;20032;-95
2024/01/07 06:06:17;;;;;;;89.88;84.60;;;;;;;;;;4905164;29;20064;-96
2024/01/07 06:08:43;;;;;;;105.07;98.95;;;;;;;;;;4905815;29;20111;-96
2024/01/07 06:11:12;;;;;;;97.57;91.93;;;;;;;;;;4894622;29;20135;-96
2024/01/07 06:13:43;;;;;;;82.90;78.05;;;;;;;;;;4903317;29;20490;-96
2024/01/07 06:16:20;;;;;;;87.85;82.68;;;;;;;;;;4890823;29;20040;-96
2024/01/07 06:18:49;;;;;;;105.38;99.47;;;;;;;;;;4888126;29;20546;-96
2024/01/07 06:21:15;;;;;;;99.80;94.05;;;;;;;;;;4887815;29;20036;-96
2024/01/07 06:23:42;;;;;;;107.80;101.72;;;;;;;;;;4887187;29;20088;-96
2024/01/07 06:26:08;;;;;;;82.43;77.45;;;;;;;;;;4886719;29;20051;-95
2024/01/07 06:28:34;;;;;;;95.15;89.53;;;;;;;;;;4886612;29;20100;-96
2024/01/07 06:31:04;;;;;;;108.97;102.82;;;;;;;;;;4886939;29;20363;-95
2024/01/07 06:33:30;;;;;;;70.47;66.10;;;;;;;;;;4885371;29;20059;-96
2024/01/07 06:35:57;;;;;;;109.03;102.88;;;;;;;;;;4885587;29;20040;-95
2024/01/07 06:38:24;;;;;;;78.07;73.45;;;;;;;;;;4885731;29;20032;-95
2024/01/07 06:40:50;;;;;;;76.65;72.05;;;;;;;;;;4885349;29;20060;-96
2024/01/07 06:43:16;;;;;;;98.00;92.32;;;;;;;;;;4885761;29;20111;-95
2024/01/07 06:45:43;;;;;;;107.90;101.93;;;;;;;;;;4891149;29;20036;-96
2024/01/07 06:48:09;;;;;;;79.55;74.97;;;;;;;;;;4888203;29;20031;-93
2024/01/07 06:50:36;;;;;;;73.03;68.65;;;;;;;;;;4884395;29;20131;-95
2024/01/07 06:53:02;;;;;;;67.68;63.63;;;;;;;;;;4884134;29;20036;-94
2024/01/07 06:55:28;;;;;;;99.28;93.70;;;;;;;;;;4891579;29;20024;-94
2024/01/07 06:57:54;;;;;;;90.00;84.82;;;;;;;;;;4884790;29;20028;-94
2024/01/07 07:00:20;;;;;;;101.68;95.95;;;;;;;;;;4889798;29;20033;-94
2024/01/07 07:02:47;;;;;;;93.05;87.60;;;;;;;;;;4884633;29;20032;-94
2024/01/07 07:05:13;;;;;;;89.68;84.35;;;;;;;;;;4884570;29;20184;-92
2024/01/07 07:07:40;;;;;;;76.07;71.65;;;;;;;;;;4882674;29;20056;-91
2024/01/07 07:10:06;;;;;;;66.00;62.03;;;;;;;;;;4883036;29;20139;-96
2024/01/07 07:12:32;;;;;;;76.80;72.20;;;;;;;;;;4883568;29;20044;-96
2024/01/07 07:14:58;;;;;;;73.10;67.93;;;;;;;;;;4883841;29;20033;-95
2024/01/07 07:17:24;;;;;;;72.20;67.93;;;;;;;;;;4884825;29;20035;-93
2024/01/07 07:19:50;;;;;;;69.53;65.28;;;;;;;;;;4883647;29;20036;-94
2024/01/07 07:22:18;;;;;;;60.78;56.95;;;;;;;;;;4884532;29;20039;-95
2024/01/07 07:24:44;;;;;;;67.75;63.55;;;;;;;;;;4884117;29;20024;-96
2024/01/07 07:27:12;;;;;;;88.57;83.35;;;;;;;;;;4883913;29;20036;-96
2024/01/07 07:29:38;;;;;;;66.07;61.97;;;;;;;;;;4883726;29;20032;-95
2024/01/07 07:32:05;;;;;;;67.30;63.13;;;;;;;;;;4915720;29;20089;-95
2024/01/07 07:34:47;;;;;;;74.03;69.60;;;;;;;;;;4909310;29;20024;-94
2024/01/07 07:37:13;;;;;;;74.68;70.25;;;;;;;;;;4889878;29;20045;-95
2024/01/07 07:39:40;;;;;;;84.93;79.93;;;;;;;;;;4887842;29;20040;-96
2024/01/07 07:42:06;;;;;;;72.53;68.03;;;;;;;;;;4892912;29;20475;-93
2024/01/07 07:44:34;;;;;;;91.88;86.60;;;;;;;;;;4887786;29;20052;-96
2024/01/07 07:47:00;;;;;;;80.72;76.10;;;;;;;;;;4898922;29;20032;-94
2024/01/07 07:49:27;;;;;;;90.47;85.07;;;;;;;;;;4887453;29;20479;-96
2024/01/07 07:51:54;;;;;;;76.82;72.22;;;;;;;;;;4904529;29;20035;-95
2024/01/07 07:54:21;;;;;;;67.10;62.53;;;;;;;;;;4906336;29;20083;-96
2024/01/07 07:56:48;;;;;;;61.47;57.58;;;;;;;;;;4897081;29;20028;-95
2024/01/07 07:59:14;;;;;;;87.13;82.15;;;;;;;;;;4886250;29;20059;-94
2024/01/07 08:01:40;;;;;;;76.03;71.32;;;;;;;;;;4902133;29;20037;-95
2024/01/07 08:04:07;;;;;;;84.30;79.38;;;;;;;;;;4886835;29;20029;-90
2024/01/07 08:06:37;;;;;;;90.45;85.13;;;;;;;;;;4904104;29;20040;-94
2024/01/07 08:09:08;;;;;;;84.40;79.32;;;;;;;;;;4908300;29;20029;-96
2024/01/07 08:11:39;;;;;;;100.80;95.07;;;;;;;;;;4912403;29;20056;-96
2024/01/07 08:14:05;;;;;;;81.43;76.53;;;;;;;;;;4895183;29;20113;-96
2024/01/07 08:16:32;;;;;;;79.65;74.82;;;;;;;;;;4907782;29;20028;-94
2024/01/07 08:18:58;;;;;;;103.93;97.88;;;;;;;;;;4905836;29;20028;-93
2024/01/07 08:21:25;;;;;;;89.20;83.72;;;;;;;;;;4904751;29;20075;-93
2024/01/07 08:23:51;;;;;;;90.50;85.00;;;;;;;;;;4945072;23;20051;-95
2024/01/07 08:26:39;;;;;;;94.10;88.65;;;;;;;;;;4930776;29;20035;-95
2024/01/07 08:29:06;;;;;;;95.07;89.65;;;;;;;;;;4927810;29;20117;-93
2024/01/07 08:31:33;;;;;;;88.00;82.55;;;;;;;;;;4928481;29;20034;-95
2024/01/07 08:34:01;;;;;;;96.28;90.80;;;;;;;;;;4927994;29;20024;-93
2024/01/07 08:36:27;;;;;;;76.60;71.97;;;;;;;;;;4926658;29;20024;-93
2024/01/07 08:38:53;;;;;;;81.68;76.95;;;;;;;;;;4932485;29;20043;-94
2024/01/07 08:41:19;;;;;;;94.75;89.38;;;;;;;;;;4946492;29;20055;-95
2024/01/07 08:43:45;;;;;;;96.00;90.68;;;;;;;;;;4942024;29;20038;-95
2024/01/07 08:46:15;;;;;;;96.63;91.20;;;;;;;;;;4933747;29;20130;-93
2024/01/07 08:48:48;;;;;;;109.35;103.22;;;;;;;;;;4921463;29;20059;-95
2024/01/07 08:51:15;;;;;;;89.95;84.85;;;;;;;;;;4943701;29;20496;-95
2024/01/07 08:57:09;;;;;;;81.18;76.35;;;;;;;;;;4913669;29;20367;-96
2024/01/07 08:59:55;;;;;;;81.00;76.35;;;;;;;;;;4943638;29;20027;-95
2024/01/07 09:02:23;;;;;;;97.35;91.38;;;;;;;;;;4943335;29;20023;-96
2024/01/07 09:04:50;;;;;;;75.22;70.75;;;;;;;;;;4940132;29;20042;-95
2024/01/07 09:07:19;;;;;;;88.55;83.68;;;;;;;;;;4955149;29;20028;-95
2024/01/07 09:09:46;;;;;;;79.97;75.20;;;;;;;;;;4926133;29;20031;-94
2024/01/07 09:12:20;;;;;;;84.88;79.97;;;;;;;;;;4927180;29;20051;-93
2024/01/07 11:23:44;;;;;;;16.88;15.43;;;;;;;;;;4863855;29;19960;-92
2024/01/07 11:28:58;;;;;;;23.58;21.52;;;;;;;;;;4926385;23;20055;-94
2024/01/07 11:31:39;;;;;;;27.05;24.83;;;;;;;;;;4882823;29;20029;-90
2024/01/07 11:46:00;;;;;;;27.38;24.92;;;;;;;;;;4901710;29;20037;-92
2024/01/07 11:59:27;;;;;;;24.02;21.95;;;;;;;;;;5367045;23;20053;-95
2024/01/07 12:22:11;;;;;;;17.65;14.48;;;;;;;;;;4889204;29;20072;-95
2024/01/07 12:24:38;;;;;;;23.67;21.52;;;;;;;;;;4848039;29;20049;-95
2024/01/07 13:14:36;;;;;;;22.55;20.27;;;;;;;;;;5637959;23;20049;-94
2024/01/07 13:17:02;;;;;;;20.55;18.48;;;;;;;;;;4872531;29;20029;-94
2024/01/07 13:19:30;;;;;;;24.92;22.55;;;;;;;;;;4866707;29;20060;-92
2024/01/07 13:21:59;;;;;;;19.48;15.48;;;;;;;;;;4885763;29;20025;-95
2024/01/07 13:24:33;;;;;;;28.33;25.55;;;;;;;;;;4870419;29;20522;-95
2024/01/07 13:26:59;;;;;;;23.40;20.20;;;;;;;;;;4866984;29;20040;-93
2024/01/07 13:29:25;;;;;;;24.00;21.60;;;;;;;;;;4866285;29;20044;-91
2024/01/07 13:31:51;;;;;;;20.13;17.95;;;;;;;;;;4866695;29;20029;-93
2024/01/07 13:34:18;;;;;;;18.80;16.60;;;;;;;;;;4873631;29;20029;-92
2024/01/07 13:36:44;;;;;;;19.35;17.35;;;;;;;;;;4872556;29;20055;-92
2024/01/07 13:39:10;;;;;;;34.83;31.95;;;;;;;;;;4877372;29;20028;-92
2024/01/07 13:41:37;;;;;;;23.05;20.48;;;;;;;;;;4885592;29;20037;-94
2024/01/07 13:44:03;;;;;;;22.88;16.42;;;;;;;;;;4878181;29;20071;-94
2024/01/07 13:46:29;;;;;;;25.42;22.88;;;;;;;;;;4866954;29;20037;-94
2024/01/07 13:48:55;;;;;;;21.52;17.85;;;;;;;;;;4866168;29;20098;-93
2024/01/07 13:51:21;;;;;;;22.08;19.70;;;;;;;;;;4874725;29;20044;-94
2024/01/07 13:53:48;;;;;;;22.85;18.88;;;;;;;;;;4884370;29;20025;-93
2024/01/07 13:56:14;;;;;;;24.30;21.77;;;;;;;;;;4869843;29;20029;-94
2024/01/07 13:58:40;;;;;;;21.67;17.33;;;;;;;;;;4869811;29;20028;-94
2024/01/07 14:01:06;;;;;;;23.70;20.17;;;;;;;;;;4883910;29;20060;-94
2024/01/07 14:03:33;;;;;;;23.13;17.20;;;;;;;;;;4867075;29;20060;-94
2024/01/07 14:06:00;;;;;;;22.25;19.38;;;;;;;;;;4865245;29;20037;-95
2024/01/07 14:08:26;;;;;;;23.25;20.73;;;;;;;;;;4865292;29;20390;-95
2024/01/07 14:10:52;;;;;;;24.00;19.60;;;;;;;;;;4865160;29;20479;-92
2024/01/07 14:13:19;;;;;;;23.02;19.83;;;;;;;;;;4866743;29;20033;-93
2024/01/07 14:15:45;;;;;;;23.58;17.40;;;;;;;;;;4866696;29;20080;-95
2024/01/07 14:18:15;;;;;;;34.33;30.67;;;;;;;;;;4866780;29;20372;-93
2024/01/07 14:20:42;;;;;;;29.77;24.50;;;;;;;;;;4866644;29;20033;-93
2024/01/07 14:23:09;;;;;;;32.63;23.88;;;;;;;;;;4895455;29;20023;-93
2024/01/07 14:25:36;;;;;;;27.67;19.75;;;;;;;;;;5009301;23;20048;-93
2024/01/07 14:28:03;;;;;;;26.15;23.45;;;;;;;;;;4870266;29;20060;-94
2024/01/07 14:30:30;;;;;;;24.85;21.45;;;;;;;;;;4866196;29;20033;-92
2024/01/07 14:32:57;;;;;;;24.00;17.58;;;;;;;;;;4867758;29;20088;-93
2024/01/07 14:35:25;;;;;;;23.73;15.82;;;;;;;;;;4866335;29;20029;-93
2024/01/07 14:37:55;;;;;;;42.30;38.90;;;;;;;;;;4866306;29;20032;-93
2024/01/07 14:40:21;;;;;;;23.83;17.95;;;;;;;;;;4864960;29;20025;-94
2024/01/07 14:42:47;;;;;;;24.77;19.45;;;;;;;;;;4864682;29;20032;-92
2024/01/07 14:45:14;;;;;;;21.20;13.90;;;;;;;;;;4877782;29;20051;-91
2024/01/07 14:47:40;;;;;;;25.58;18.10;;;;;;;;;;4886653;29;20135;-92
2024/01/07 14:50:08;;;;;;;28.42;20.55;;;;;;;;;;4884338;29;20119;-93
2024/01/07 14:52:34;;;;;;;26.73;18.38;;;;;;;;;;4864500;29;20033;-92
2024/01/07 14:55:02;;;;;;;30.25;18.63;;;;;;;;;;4879472;29;20112;-94
2024/01/07 14:57:28;;;;;;;34.22;18.90;;;;;;;;;;4882682;29;20131;-93
2024/01/07 14:59:54;;;;;;;35.78;24.08;;;;;;;;;;4883355;29;20052;-93
2024/01/07 15:02:21;;;;;;;37.53;22.70;;;;;;;;;;4882795;29;20064;-92
2024/01/07 15:04:47;;;;;;;48.20;24.00;;;;;;;;;;4873228;29;20093;-91
2024/01/07 15:07:13;;;;;;;28.40;18.98;;;;;;;;;;4864673;29;20475;-94
2024/01/07 15:09:43;;;;;;;38.70;22.92;;;;;;;;;;4864263;29;20089;-93
2024/01/07 15:12:09;;;;;;;28.55;17.92;;;;;;;;;;4872067;29;20029;-93
2024/01/07 15:14:36;;;;;;;35.95;18.98;;;;;;;;;;4867172;29;20036;-93
2024/01/07 15:17:02;;;;;;;40.10;22.65;;;;;;;;;;4881201;29;20037;-93
2024/01/07 15:19:29;;;;;;;32.60;19.13;;;;;;;;;;4880748;29;20033;-93
2024/01/07 15:22:30;;;;;;;28.90;19.02;;;;;;;;;;4865449;29;20379;-92
2024/01/07 15:24:56;;;;;;;25.27;17.02;;;;;;;;;;4863631;29;20139;-92
2024/01/07 15:27:22;;;;;;;25.60;16.48;;;;;;;;;;4865389;29;20064;-92
2024/01/07 15:29:48;;;;;;;30.65;27.10;;;;;;;;;;4868584;29;20033;-91
2024/01/07 15:35:05;;;;;;;25.75;16.40;;;;;;;;;;4898887;23;20056;-95
2024/01/07 15:37:31;;;;;;;27.17;18.52;;;;;;;;;;4865852;29;20509;-92
2024/01/07 15:39:57;;;;;;;41.38;22.73;;;;;;;;;;4873055;29;20060;-93
2024/01/07 15:42:25;;;;;;;26.83;17.85;;;;;;;;;;4864490;29;20097;-93
2024/01/07 15:44:51;;;;;;;36.92;19.88;;;;;;;;;;4865979;29;20037;-93
2024/01/07 15:47:17;;;;;;;28.60;19.33;;;;;;;;;;4883338;29;20062;-93
2024/01/07 15:49:43;;;;;;;29.67;21.00;;;;;;;;;;4883396;29;20032;-93
2024/01/07 15:52:09;;;;;;;28.92;18.20;;;;;;;;;;4883399;29;20095;-93
2024/01/07 15:54:35;;;;;;;29.75;19.73;;;;;;;;;;4884720;29;20029;-92
2024/01/07 15:57:05;;;;;;;33.03;24.50;;;;;;;;;;4886606;29;20127;-94
2024/01/07 15:59:32;;;;;;;32.58;20.30;;;;;;;;;;4887440;29;20052;-92
2024/01/07 16:01:58;;;;;;;28.83;19.35;;;;;;;;;;4888107;29;20184;-93
2024/01/07 16:04:24;;;;;;;29.98;22.88;;;;;;;;;;4887365;29;20111;-92
2024/01/07 16:06:51;;;;;;;32.92;18.58;;;;;;;;;;4869217;29;20040;-92
2024/01/07 16:09:17;;;;;;;27.77;17.77;;;;;;;;;;4892908;29;20025;-93
2024/01/07 16:11:45;;;;;;;28.88;20.77;;;;;;;;;;4908188;29;20037;-91
2024/01/07 16:14:17;;;;;;;25.80;20.60;;;;;;;;;;4889779;29;20068;-92
2024/01/07 16:16:43;;;;;;;26.15;19.33;;;;;;;;;;4880138;29;20041;-92
2024/01/07 16:19:10;;;;;;;29.08;21.35;;;;;;;;;;4870347;29;20168;-90
2024/01/07 16:21:36;;;;;;;25.33;17.65;;;;;;;;;;4879326;29;20040;-92
2024/01/07 16:24:03;;;;;;;34.72;20.48;;;;;;;;;;4866913;29;20033;-93
2024/01/07 16:26:29;;;;;;;33.65;23.70;;;;;;;;;;4866507;29;20045;-92
2024/01/07 16:28:55;;;;;;;23.15;16.80;;;;;;;;;;4867329;29;20534;-93
2024/01/07 16:31:22;;;;;;;28.30;19.83;;;;;;;;;;4866658;29;20478;-91
2024/01/07 16:33:48;;;;;;;31.42;19.52;;;;;;;;;;4866495;29;20049;-91
2024/01/07 16:36:14;;;;;;;26.60;19.63;;;;;;;;;;4866339;29;20136;-93
2024/01/07 16:38:40;;;;;;;31.27;22.15;;;;;;;;;;4866412;29;20060;-91
2024/01/07 16:41:08;;;;;;;29.13;17.13;;;;;;;;;;4867023;29;20440;-90
2024/01/07 16:43:35;;;;;;;28.48;19.85;;;;;;;;;;4885275;29;20392;-91
2024/01/07 16:46:01;;;;;;;28.95;23.17;;;;;;;;;;4885245;29;20104;-92
2024/01/07 16:48:27;;;;;;;27.58;19.60;;;;;;;;;;4881908;29;20051;-92
2024/01/07 16:50:53;;;;;;;29.60;16.58;;;;;;;;;;4884521;29;20032;-92
2024/01/07 16:53:20;;;;;;;31.13;20.52;;;;;;;;;;4884795;29;20096;-92
2024/01/07 16:55:47;;;;;;;33.78;23.80;;;;;;;;;;4876892;29;20040;-92
2024/01/07 16:58:13;;;;;;;33.88;25.85;;;;;;;;;;4866275;29;20095;-93
2024/01/07 17:00:40;;;;;;;26.67;18.30;;;;;;;;;;4867081;29;20052;-93
2024/01/07 17:03:06;;;;;;;44.78;40.30;;;;;;;;;;4884673;29;20025;-94
2024/01/07 17:05:32;;;;;;;45.85;27.98;;;;;;;;;;4884296;29;20043;-93
2024/01/07 17:07:59;;;;;;;31.35;25.08;;;;;;;;;;4885655;29;20123;-92
2024/01/07 17:10:25;;;;;;;29.55;21.20;;;;;;;;;;4884990;29;20033;-93
2024/01/07 17:12:51;;;;;;;33.10;21.90;;;;;;;;;;4886055;29;20076;-93
2024/01/07 17:15:17;;;;;;;28.10;18.73;;;;;;;;;;4885096;29;20048;-92
2024/01/07 17:17:46;;;;;;;27.35;23.98;;;;;;;;;;4884669;29;20035;-93
2024/01/07 17:20:13;;;;;;;29.88;23.50;;;;;;;;;;4873359;29;20064;-93
2024/01/07 17:22:40;;;;;;;30.17;20.25;;;;;;;;;;4865726;29;20029;-91
2024/01/07 17:25:09;;;;;;;29.27;19.45;;;;;;;;;;4865442;29;20108;-91
2024/01/07 17:27:35;;;;;;;30.90;19.25;;;;;;;;;;4857963;29;20036;-93
2024/01/07 17:30:03;;;;;;;27.77;17.58;;;;;;;;;;4865536;29;20035;-94
2024/01/07 17:32:29;;;;;;;30.52;21.58;;;;;;;;;;4865912;29;20036;-94
2024/01/07 17:34:55;;;;;;;39.65;23.17;;;;;;;;;;4850963;29;20060;-95
2024/01/07 17:37:22;;;;;;;29.60;18.40;;;;;;;;;;4867958;29;20033;-94
2024/01/07 17:39:48;;;;;;;36.08;20.92;;;;;;;;;;4884357;29;20024;-92
2024/01/07 17:42:15;;;;;;;31.23;17.88;;;;;;;;;;4884178;29;20039;-92
2024/01/07 17:44:41;;;;;;;28.48;18.63;;;;;;;;;;4853549;29;20146;-91
2024/01/07 17:47:07;;;;;;;30.05;19.40;;;;;;;;;;4870284;29;20088;-95
2024/01/07 17:49:34;;;;;;;30.05;20.40;;;;;;;;;;4849599;29;20053;-94
2024/01/07 17:52:02;;;;;;;25.83;18.10;;;;;;;;;;4859208;29;20092;-94
2024/01/07 17:54:28;;;;;;;33.20;19.95;;;;;;;;;;4865058;29;20042;-94
2024/01/07 17:56:54;;;;;;;28.95;19.27;;;;;;;;;;4853117;29;20030;-91
2024/01/07 18:03:05;;;;;;;31.55;18.30;;;;;;;;;;4806333;29;20094;-94
2024/01/07 18:05:35;;;;;;;33.80;19.50;;;;;;;;;;4788673;29;20084;-91
2024/01/07 18:08:01;;;;;;;30.80;17.75;;;;;;;;;;4855318;29;20103;-93
2024/01/07 18:10:28;;;;;;;28.67;20.40;;;;;;;;;;4883524;29;20104;-92
2024/01/07 18:12:55;;;;;;;39.85;23.83;;;;;;;;;;4883441;29;20115;-92
2024/01/07 18:18:08;;;;;;;27.52;18.45;;;;;;;;;;4930816;23;20085;-94
2024/01/07 18:20:41;;;;;;;30.13;18.92;;;;;;;;;;4868076;29;20022;-94
2024/01/07 18:23:10;;;;;;;36.25;23.38;;;;;;;;;;4868363;29;20025;-93
2024/01/07 18:25:37;;;;;;;31.05;18.65;;;;;;;;;;4864578;29;20044;-92
2024/01/07 18:28:03;;;;;;;47.80;29.13;;;;;;;;;;4866782;29;20029;-93
2024/01/07 18:30:29;;;;;;;40.55;25.05;;;;;;;;;;4885137;29;20044;-93
2024/01/07 18:33:01;;;;;;;35.20;27.35;;;;;;;;;;5014944;23;20023;-95
2024/01/07 18:35:45;;;;;;;37.17;21.25;;;;;;;;;;5032983;23;20057;-93
2024/01/07 18:38:11;;;;;;;31.83;19.98;;;;;;;;;;4864589;29;20037;-91
2024/01/07 18:40:37;;;;;;;34.40;21.52;;;;;;;;;;4864917;29;20029;-91
2024/01/07 18:43:05;;;;;;;37.78;25.05;;;;;;;;;;4864444;29;20041;-92
2024/01/07 18:45:35;;;;;;;32.05;22.60;;;;;;;;;;4873030;29;20794;-94
2024/01/07 18:48:02;;;;;;;34.75;21.33;;;;;;;;;;4898589;29;20048;-92
2024/01/07 18:50:28;;;;;;;36.13;24.08;;;;;;;;;;4899045;29;20036;-93
2024/01/07 18:52:55;;;;;;;42.20;23.83;;;;;;;;;;4883048;29;20039;-93
2024/01/07 18:55:22;;;;;;;38.10;25.65;;;;;;;;;;4874607;29;20040;-93
2024/01/07 18:57:49;;;;;;;46.42;25.23;;;;;;;;;;4864079;29;20029;-93
2024/01/07 19:00:16;;;;;;;39.60;32.42;;;;;;;;;;4864231;29;20031;-95
2024/01/07 19:02:42;;;;;;;69.03;32.55;;;;;;;;;;4873697;29;20466;-91
2024/01/07 19:05:09;;;;;;;66.88;28.75;;;;;;;;;;4882427;29;20482;-93
2024/01/07 19:07:36;;;;;;;52.20;27.35;;;;;;;;;;4882908;29;20025;-92
2024/01/07 19:10:02;;;;;;;33.42;20.52;;;;;;;;;;4883193;29;20028;-92
2024/01/07 19:12:29;;;;;;;37.50;20.77;;;;;;;;;;4868260;29;20033;-92
2024/01/07 19:14:55;;;;;;;38.42;23.10;;;;;;;;;;4881838;29;20127;-94
2024/01/07 19:17:21;;;;;;;52.88;26.77;;;;;;;;;;4882686;29;20036;-93
2024/01/07 19:19:48;;;;;;;45.00;25.10;;;;;;;;;;4874487;29;20033;-94
2024/01/07 19:22:14;;;;;;;61.72;30.85;;;;;;;;;;4863973;29;20128;-94
2024/01/07 19:24:40;;;;;;;57.47;30.38;;;;;;;;;;4863956;29;20040;-94
2024/01/07 19:27:06;;;;;;;36.60;20.35;;;;;;;;;;4864091;29;20111;-93
2024/01/07 19:29:32;;;;;;;34.20;19.60;;;;;;;;;;4865319;29;20033;-95
2024/01/07 19:31:59;;;;;;;44.92;24.27;;;;;;;;;;4868532;29;20035;-94
2024/01/07 19:34:28;;;;;;;44.33;23.73;;;;;;;;;;4868681;29;20053;-94
2024/01/07 19:36:54;;;;;;;38.22;19.67;;;;;;;;;;4874612;29;20063;-94
2024/01/07 19:39:20;;;;;;;39.00;20.90;;;;;;;;;;4884258;29;20050;-93
2024/01/07 19:41:46;;;;;;;30.13;18.45;;;;;;;;;;4867875;29;20040;-95
2024/01/07 19:44:13;;;;;;;29.27;18.63;;;;;;;;;;4868332;29;20391;-95
2024/01/07 19:46:39;;;;;;;32.92;19.75;;;;;;;;;;4852686;29;20049;-92
2024/01/07 19:49:06;;;;;;;27.42;20.08;;;;;;;;;;4876762;29;20035;-94
2024/01/07 19:51:32;;;;;;;33.90;19.50;;;;;;;;;;4887115;29;20476;-93
2024/01/07 19:53:59;;;;;;;32.53;20.63;;;;;;;;;;4886344;29;20032;-92
2024/01/07 19:56:25;;;;;;;31.70;21.15;;;;;;;;;;4885803;29;20131;-92
2024/01/07 19:58:51;;;;;;;32.53;17.83;;;;;;;;;;4885965;29;20040;-94
2024/01/07 20:01:18;;;;;;;28.65;18.10;;;;;;;;;;4885671;29;20033;-92
2024/01/07 20:03:44;;;;;;;31.40;17.08;;;;;;;;;;4883416;29;20039;-91
2024/01/07 20:06:14;;;;;;;34.97;23.65;;;;;;;;;;4867629;29;20068;-93
2024/01/07 20:08:41;;;;;;;34.15;19.27;;;;;;;;;;4867658;29;20032;-91
2024/01/07 20:11:08;;;;;;;33.70;22.17;;;;;;;;;;4867410;29;20050;-94
2024/01/07 20:13:34;;;;;;;33.97;17.13;;;;;;;;;;4867251;29;20053;-90
2024/01/07 20:16:02;;;;;;;28.30;19.13;;;;;;;;;;4867440;29;20475;-91
2024/01/07 20:18:28;;;;;;;33.53;19.83;;;;;;;;;;4867962;29;20085;-94
2024/01/07 20:20:54;;;;;;;29.88;17.98;;;;;;;;;;4868098;29;20116;-91
2024/01/07 20:23:21;;;;;;;35.50;18.75;;;;;;;;;;4868368;29;20451;-93
2024/01/07 20:25:47;;;;;;;29.42;19.52;;;;;;;;;;4868663;29;20041;-91
2024/01/07 20:28:14;;;;;;;32.70;19.85;;;;;;;;;;4869989;29;20063;-92
2024/01/07 20:30:40;;;;;;;33.38;19.13;;;;;;;;;;4898037;29;20044;-94
2024/01/07 20:33:09;;;;;;;33.45;17.48;;;;;;;;;;4884474;29;20057;-94
2024/01/07 20:35:39;;;;;;;32.25;17.73;;;;;;;;;;4866184;29;20106;-92
2024/01/07 20:38:05;;;;;;;29.42;17.90;;;;;;;;;;4866715;29;20029;-92